sensor_id;sensor_type;location;lat;lon;timestamp;P1;durP1;ratioP1;P2;durP2;ratioP2
57085;SDS011;42964;42.910;23.792;2023-03-04T00:01:40;53.75;;;33.13;;
57085;SDS011;42964;42.910;23.792;2023-03-04T00:06:39;70.70;;;41.75;;
57085;SDS011;42964;42.910;23.792;2023-03-04T00:11:38;70.30;;;41.33;;
57085;SDS011;42964;42.910;23.792;2023-03-04T00:16:37;56.63;;;36.67;;
57085;SDS011;42964;42.910;23.792;2023-03-04T00:21:36;46.25;;;28.50;;
57085;SDS011;42964;42.910;23.792;2023-03-04T00:31:34;45.45;;;27.65;;
57085;SDS011;42964;42.910;23.792;2023-03-04T00:36:33;46.35;;;25.60;;
57085;SDS011;42964;42.910;23.792;2023-03-04T00:41:32;44.05;;;25.85;;
57085;SDS011;42964;42.910;23.792;2023-03-04T00:46:30;45.65;;;29.40;;
57085;SDS011;42964;42.910;23.792;2023-03-04T00:51:29;43.92;;;27.95;;
57085;SDS011;42964;42.910;23.792;2023-03-04T00:56:28;49.30;;;29.77;;
57085;SDS011;42964;42.910;23.792;2023-03-04T01:01:27;49.65;;;29.40;;
57085;SDS011;42964;42.910;23.792;2023-03-04T01:06:26;41.70;;;27.63;;
57085;SDS011;42964;42.910;23.792;2023-03-04T01:11:25;43.25;;;26.63;;
57085;SDS011;42964;42.910;23.792;2023-03-04T01:16:24;50.05;;;30.73;;
57085;SDS011;42964;42.910;23.792;2023-03-04T01:21:23;52.15;;;31.77;;
57085;SDS011;42964;42.910;23.792;2023-03-04T01:26:22;53.63;;;32.08;;
57085;SDS011;42964;42.910;23.792;2023-03-04T01:31:21;56.58;;;32.80;;
57085;SDS011;42964;42.910;23.792;2023-03-04T01:36:20;62.13;;;35.05;;
57085;SDS011;42964;42.910;23.792;2023-03-04T01:41:21;60.45;;;33.22;;
57085;SDS011;42964;42.910;23.792;2023-03-04T01:46:23;58.13;;;33.45;;
57085;SDS011;42964;42.910;23.792;2023-03-04T01:51:22;62.53;;;35.33;;
57085;SDS011;42964;42.910;23.792;2023-03-04T01:56:27;65.80;;;37.80;;
57085;SDS011;42964;42.910;23.792;2023-03-04T02:01:27;83.57;;;45.95;;
57085;SDS011;42964;42.910;23.792;2023-03-04T02:06:26;77.53;;;42.78;;
57085;SDS011;42964;42.910;23.792;2023-03-04T02:11:25;67.40;;;42.28;;
57085;SDS011;42964;42.910;23.792;2023-03-04T02:16:25;63.85;;;37.25;;
57085;SDS011;42964;42.910;23.792;2023-03-04T02:21:28;57.03;;;34.28;;
57085;SDS011;42964;42.910;23.792;2023-03-04T02:26:31;63.13;;;37.42;;
57085;SDS011;42964;42.910;23.792;2023-03-04T02:31:39;61.08;;;36.95;;
57085;SDS011;42964;42.910;23.792;2023-03-04T02:36:39;62.00;;;36.50;;
57085;SDS011;42964;42.910;23.792;2023-03-04T02:41:39;56.88;;;34.65;;
57085;SDS011;42964;42.910;23.792;2023-03-04T02:46:38;53.85;;;31.85;;
57085;SDS011;42964;42.910;23.792;2023-03-04T02:51:37;52.67;;;32.70;;
57085;SDS011;42964;42.910;23.792;2023-03-04T03:01:35;49.05;;;29.77;;
57085;SDS011;42964;42.910;23.792;2023-03-04T03:06:34;52.17;;;31.02;;
57085;SDS011;42964;42.910;23.792;2023-03-04T03:11:33;56.08;;;32.53;;
57085;SDS011;42964;42.910;23.792;2023-03-04T03:16:33;53.90;;;34.25;;
57085;SDS011;42964;42.910;23.792;2023-03-04T03:21:32;49.00;;;30.73;;
57085;SDS011;42964;42.910;23.792;2023-03-04T03:26:31;51.90;;;30.23;;
57085;SDS011;42964;42.910;23.792;2023-03-04T03:31:30;56.38;;;32.50;;
57085;SDS011;42964;42.910;23.792;2023-03-04T03:36:29;52.88;;;32.30;;
57085;SDS011;42964;42.910;23.792;2023-03-04T03:41:28;59.38;;;34.80;;
57085;SDS011;42964;42.910;23.792;2023-03-04T03:46:27;56.72;;;33.85;;
57085;SDS011;42964;42.910;23.792;2023-03-04T03:51:26;56.38;;;32.53;;
57085;SDS011;42964;42.910;23.792;2023-03-04T03:56:24;61.53;;;34.00;;
57085;SDS011;42964;42.910;23.792;2023-03-04T04:01:23;57.42;;;33.53;;
57085;SDS011;42964;42.910;23.792;2023-03-04T04:06:23;54.10;;;32.92;;
57085;SDS011;42964;42.910;23.792;2023-03-04T04:11:21;55.33;;;30.13;;
57085;SDS011;42964;42.910;23.792;2023-03-04T04:16:20;58.92;;;30.90;;
57085;SDS011;42964;42.910;23.792;2023-03-04T04:21:19;55.50;;;31.45;;
57085;SDS011;42964;42.910;23.792;2023-03-04T04:26:18;52.33;;;27.92;;
57085;SDS011;42964;42.910;23.792;2023-03-04T04:31:17;48.65;;;28.83;;
57085;SDS011;42964;42.910;23.792;2023-03-04T04:36:16;51.45;;;27.75;;
57085;SDS011;42964;42.910;23.792;2023-03-04T04:41:20;52.20;;;27.55;;
57085;SDS011;42964;42.910;23.792;2023-03-04T04:46:21;47.97;;;26.17;;
57085;SDS011;42964;42.910;23.792;2023-03-04T04:51:20;57.05;;;29.50;;
57085;SDS011;42964;42.910;23.792;2023-03-04T04:56:20;56.75;;;28.83;;
57085;SDS011;42964;42.910;23.792;2023-03-04T05:01:23;60.20;;;31.70;;
57085;SDS011;42964;42.910;23.792;2023-03-04T05:06:23;55.85;;;30.88;;
57085;SDS011;42964;42.910;23.792;2023-03-04T05:11:22;54.22;;;28.45;;
57085;SDS011;42964;42.910;23.792;2023-03-04T05:21:20;60.72;;;31.15;;
57085;SDS011;42964;42.910;23.792;2023-03-04T05:26:19;57.67;;;31.10;;
57085;SDS011;42964;42.910;23.792;2023-03-04T05:31:18;72.57;;;34.67;;
57085;SDS011;42964;42.910;23.792;2023-03-04T05:36:17;80.55;;;41.25;;
57085;SDS011;42964;42.910;23.792;2023-03-04T05:41:16;78.63;;;39.80;;
57085;SDS011;42964;42.910;23.792;2023-03-04T05:46:18;80.53;;;40.45;;
57085;SDS011;42964;42.910;23.792;2023-03-04T05:51:22;69.47;;;35.80;;
57085;SDS011;42964;42.910;23.792;2023-03-04T05:56:21;62.50;;;32.38;;
57085;SDS011;42964;42.910;23.792;2023-03-04T06:01:20;66.55;;;36.60;;
57085;SDS011;42964;42.910;23.792;2023-03-04T06:06:19;60.72;;;31.50;;
57085;SDS011;42964;42.910;23.792;2023-03-04T06:11:18;59.22;;;30.60;;
57085;SDS011;42964;42.910;23.792;2023-03-04T06:16:17;58.17;;;31.83;;
57085;SDS011;42964;42.910;23.792;2023-03-04T06:21:16;54.28;;;30.23;;
57085;SDS011;42964;42.910;23.792;2023-03-04T06:26:15;49.38;;;28.23;;
57085;SDS011;42964;42.910;23.792;2023-03-04T06:31:14;51.65;;;29.33;;
57085;SDS011;42964;42.910;23.792;2023-03-04T06:36:13;50.17;;;29.73;;
57085;SDS011;42964;42.910;23.792;2023-03-04T06:41:12;53.38;;;31.38;;
57085;SDS011;42964;42.910;23.792;2023-03-04T06:46:12;50.28;;;30.38;;
57085;SDS011;42964;42.910;23.792;2023-03-04T06:51:11;54.50;;;33.03;;
57085;SDS011;42964;42.910;23.792;2023-03-04T06:56:11;52.72;;;31.48;;
57085;SDS011;42964;42.910;23.792;2023-03-04T07:01:14;131.50;;;49.78;;
57085;SDS011;42964;42.910;23.792;2023-03-04T07:06:15;64.35;;;34.53;;
57085;SDS011;42964;42.910;23.792;2023-03-04T07:11:15;54.38;;;32.53;;
57085;SDS011;42964;42.910;23.792;2023-03-04T07:16:16;60.75;;;37.97;;
57085;SDS011;42964;42.910;23.792;2023-03-04T07:21:17;61.65;;;38.88;;
57085;SDS011;42964;42.910;23.792;2023-03-04T07:26:16;63.60;;;39.75;;
57085;SDS011;42964;42.910;23.792;2023-03-04T07:31:23;60.97;;;38.75;;
57085;SDS011;42964;42.910;23.792;2023-03-04T07:36:27;55.90;;;37.88;;
57085;SDS011;42964;42.910;23.792;2023-03-04T07:41:26;40.40;;;25.38;;
57085;SDS011;42964;42.910;23.792;2023-03-04T07:46:26;32.08;;;20.92;;
57085;SDS011;42964;42.910;23.792;2023-03-04T07:51:26;45.30;;;28.65;;
57085;SDS011;42964;42.910;23.792;2023-03-04T07:56:27;34.67;;;21.90;;
57085;SDS011;42964;42.910;23.792;2023-03-04T08:01:30;36.47;;;24.10;;
57085;SDS011;42964;42.910;23.792;2023-03-04T08:06:32;33.92;;;21.58;;
57085;SDS011;42964;42.910;23.792;2023-03-04T08:11:31;32.70;;;20.80;;
57085;SDS011;42964;42.910;23.792;2023-03-04T08:16:31;38.40;;;24.67;;
57085;SDS011;42964;42.910;23.792;2023-03-04T08:21:30;36.13;;;24.42;;
57085;SDS011;42964;42.910;23.792;2023-03-04T08:26:32;40.88;;;27.55;;
57085;SDS011;42964;42.910;23.792;2023-03-04T08:31:33;40.05;;;27.30;;
57085;SDS011;42964;42.910;23.792;2023-03-04T08:36:32;37.28;;;26.17;;
57085;SDS011;42964;42.910;23.792;2023-03-04T08:41:31;35.10;;;24.23;;
57085;SDS011;42964;42.910;23.792;2023-03-04T08:46:30;36.55;;;24.40;;
57085;SDS011;42964;42.910;23.792;2023-03-04T08:51:29;35.35;;;23.13;;
57085;SDS011;42964;42.910;23.792;2023-03-04T09:01:27;35.15;;;26.08;;
57085;SDS011;42964;42.910;23.792;2023-03-04T09:06:26;38.75;;;26.92;;
57085;SDS011;42964;42.910;23.792;2023-03-04T09:11:25;31.58;;;21.98;;
57085;SDS011;42964;42.910;23.792;2023-03-04T09:16:24;37.47;;;26.30;;
57085;SDS011;42964;42.910;23.792;2023-03-04T09:26:23;33.60;;;21.42;;
57085;SDS011;42964;42.910;23.792;2023-03-04T09:31:25;31.20;;;21.25;;
57085;SDS011;42964;42.910;23.792;2023-03-04T09:36:24;26.90;;;19.88;;
57085;SDS011;42964;42.910;23.792;2023-03-04T09:46:34;26.55;;;17.80;;
57085;SDS011;42964;42.910;23.792;2023-03-04T09:56:41;20.42;;;12.63;;
57085;SDS011;42964;42.910;23.792;2023-03-04T10:06:42;17.80;;;9.88;;
57085;SDS011;42964;42.910;23.792;2023-03-04T10:11:59;18.50;;;11.52;;
57085;SDS011;42964;42.910;23.792;2023-03-04T10:17:05;17.83;;;11.75;;
57085;SDS011;42964;42.910;23.792;2023-03-04T10:22:27;14.25;;;8.93;;
57085;SDS011;42964;42.910;23.792;2023-03-04T10:27:32;11.50;;;7.20;;
57085;SDS011;42964;42.910;23.792;2023-03-04T10:32:31;10.00;;;6.40;;
57085;SDS011;42964;42.910;23.792;2023-03-04T10:42:43;9.10;;;5.50;;
57085;SDS011;42964;42.910;23.792;2023-03-04T10:47:53;10.90;;;6.45;;
57085;SDS011;42964;42.910;23.792;2023-03-04T10:52:53;11.77;;;6.30;;
57085;SDS011;42964;42.910;23.792;2023-03-04T10:58:01;13.57;;;7.05;;
57085;SDS011;42964;42.910;23.792;2023-03-04T11:08:22;8.77;;;5.50;;
57085;SDS011;42964;42.910;23.792;2023-03-04T11:13:26;10.05;;;5.28;;
57085;SDS011;42964;42.910;23.792;2023-03-04T11:18:39;10.43;;;5.35;;
57085;SDS011;42964;42.910;23.792;2023-03-04T11:23:46;10.18;;;5.55;;
57085;SDS011;42964;42.910;23.792;2023-03-04T11:28:51;10.60;;;5.18;;
57085;SDS011;42964;42.910;23.792;2023-03-04T11:34:00;8.07;;;4.93;;
57085;SDS011;42964;42.910;23.792;2023-03-04T11:39:13;9.52;;;4.90;;
57085;SDS011;42964;42.910;23.792;2023-03-04T11:44:18;8.45;;;5.53;;
57085;SDS011;42964;42.910;23.792;2023-03-04T12:04:50;10.75;;;6.22;;
57085;SDS011;42964;42.910;23.792;2023-03-04T12:15:24;10.00;;;5.25;;
57085;SDS011;42964;42.910;23.792;2023-03-04T12:25:42;11.07;;;6.85;;
57085;SDS011;42964;42.910;23.792;2023-03-04T12:36:15;12.82;;;7.15;;
57085;SDS011;42964;42.910;23.792;2023-03-04T12:57:38;8.40;;;5.40;;
57085;SDS011;42964;42.910;23.792;2023-03-04T13:02:46;14.13;;;6.45;;
57085;SDS011;42964;42.910;23.792;2023-03-04T13:08:26;10.68;;;5.57;;
57085;SDS011;42964;42.910;23.792;2023-03-04T13:13:35;9.88;;;4.70;;
57085;SDS011;42964;42.910;23.792;2023-03-04T13:18:36;12.95;;;6.10;;
57085;SDS011;42964;42.910;23.792;2023-03-04T13:23:38;10.48;;;5.25;;
57085;SDS011;42964;42.910;23.792;2023-03-04T13:28:38;9.73;;;6.50;;
57085;SDS011;42964;42.910;23.792;2023-03-04T13:48:41;14.40;;;6.53;;
57085;SDS011;42964;42.910;23.792;2023-03-04T13:53:42;12.48;;;6.80;;
57085;SDS011;42964;42.910;23.792;2023-03-04T13:59:13;13.07;;;6.50;;
57085;SDS011;42964;42.910;23.792;2023-03-04T14:04:20;11.95;;;7.75;;
57085;SDS011;42964;42.910;23.792;2023-03-04T14:09:28;24.90;;;8.73;;
57085;SDS011;42964;42.910;23.792;2023-03-04T14:14:29;12.07;;;8.13;;
57085;SDS011;42964;42.910;23.792;2023-03-04T14:24:53;12.50;;;7.97;;
57085;SDS011;42964;42.910;23.792;2023-03-04T14:30:05;12.57;;;8.50;;
57085;SDS011;42964;42.910;23.792;2023-03-04T14:35:21;15.90;;;8.90;;
57085;SDS011;42964;42.910;23.792;2023-03-04T14:40:25;13.20;;;8.77;;
57085;SDS011;42964;42.910;23.792;2023-03-04T14:45:28;17.40;;;9.07;;
57085;SDS011;42964;42.910;23.792;2023-03-04T14:50:27;12.45;;;8.77;;
57085;SDS011;42964;42.910;23.792;2023-03-04T15:00:27;21.67;;;9.05;;
57085;SDS011;42964;42.910;23.792;2023-03-04T15:05:32;14.55;;;8.82;;
57085;SDS011;42964;42.910;23.792;2023-03-04T15:10:33;23.40;;;11.10;;
57085;SDS011;42964;42.910;23.792;2023-03-04T15:20:51;15.73;;;11.10;;
57085;SDS011;42964;42.910;23.792;2023-03-04T15:25:55;18.37;;;10.80;;
57085;SDS011;42964;42.910;23.792;2023-03-04T15:30:56;20.35;;;11.20;;
57085;SDS011;42964;42.910;23.792;2023-03-04T15:40:58;17.48;;;9.73;;
57085;SDS011;42964;42.910;23.792;2023-03-04T15:45:57;19.75;;;10.35;;
57085;SDS011;42964;42.910;23.792;2023-03-04T15:50:57;14.98;;;10.02;;
57085;SDS011;42964;42.910;23.792;2023-03-04T15:55:58;20.08;;;10.98;;
57085;SDS011;42964;42.910;23.792;2023-03-04T16:00:58;16.65;;;10.80;;
57085;SDS011;42964;42.910;23.792;2023-03-04T16:10:55;17.35;;;9.98;;
57085;SDS011;42964;42.910;23.792;2023-03-04T16:15:54;17.95;;;11.40;;
57085;SDS011;42964;42.910;23.792;2023-03-04T16:20:53;17.00;;;11.10;;
57085;SDS011;42964;42.910;23.792;2023-03-04T16:30:53;17.88;;;10.95;;
57085;SDS011;42964;42.910;23.792;2023-03-04T16:40:50;20.42;;;11.48;;
57085;SDS011;42964;42.910;23.792;2023-03-04T16:45:50;19.95;;;12.07;;
57085;SDS011;42964;42.910;23.792;2023-03-04T16:55:49;20.60;;;12.93;;
57085;SDS011;42964;42.910;23.792;2023-03-04T17:00:48;21.85;;;12.63;;
57085;SDS011;42964;42.910;23.792;2023-03-04T17:10:46;22.88;;;13.75;;
57085;SDS011;42964;42.910;23.792;2023-03-04T17:15:46;30.80;;;22.10;;
57085;SDS011;42964;42.910;23.792;2023-03-04T17:25:43;22.25;;;14.88;;
57085;SDS011;42964;42.910;23.792;2023-03-04T17:30:42;21.77;;;12.80;;
57085;SDS011;42964;42.910;23.792;2023-03-04T17:35:41;22.23;;;14.75;;
57085;SDS011;42964;42.910;23.792;2023-03-04T17:40:42;30.30;;;19.63;;
57085;SDS011;42964;42.910;23.792;2023-03-04T17:50:50;31.60;;;23.93;;
57085;SDS011;42964;42.910;23.792;2023-03-04T17:55:50;26.48;;;18.85;;
57085;SDS011;42964;42.910;23.792;2023-03-04T18:00:53;29.55;;;18.48;;
57085;SDS011;42964;42.910;23.792;2023-03-04T18:05:57;38.85;;;30.15;;
57085;SDS011;42964;42.910;23.792;2023-03-04T18:10:56;21.60;;;17.10;;
57085;SDS011;42964;42.910;23.792;2023-03-04T18:15:55;26.85;;;15.93;;
57085;SDS011;42964;42.910;23.792;2023-03-04T18:25:56;33.90;;;21.63;;
57085;SDS011;42964;42.910;23.792;2023-03-04T18:36:01;23.85;;;12.20;;
57085;SDS011;42964;42.910;23.792;2023-03-04T18:41:04;21.98;;;14.32;;
57085;SDS011;42964;42.910;23.792;2023-03-04T18:51:15;19.98;;;12.50;;
57085;SDS011;42964;42.910;23.792;2023-03-04T18:56:15;18.98;;;12.48;;
57085;SDS011;42964;42.910;23.792;2023-03-04T19:01:21;26.30;;;17.35;;
57085;SDS011;42964;42.910;23.792;2023-03-04T19:06:22;24.25;;;15.43;;
57085;SDS011;42964;42.910;23.792;2023-03-04T19:11:21;52.88;;;32.95;;
57085;SDS011;42964;42.910;23.792;2023-03-04T19:16:22;27.60;;;17.98;;
57085;SDS011;42964;42.910;23.792;2023-03-04T19:21:21;29.27;;;15.55;;
57085;SDS011;42964;42.910;23.792;2023-03-04T19:26:20;30.83;;;17.48;;
57085;SDS011;42964;42.910;23.792;2023-03-04T19:31:19;40.90;;;25.23;;
57085;SDS011;42964;42.910;23.792;2023-03-04T19:36:18;22.88;;;12.40;;
57085;SDS011;42964;42.910;23.792;2023-03-04T19:41:17;23.50;;;13.77;;
57085;SDS011;42964;42.910;23.792;2023-03-04T19:46:16;23.05;;;13.35;;
57085;SDS011;42964;42.910;23.792;2023-03-04T19:51:17;21.67;;;14.32;;
57085;SDS011;42964;42.910;23.792;2023-03-04T19:56:18;30.73;;;19.13;;
57085;SDS011;42964;42.910;23.792;2023-03-04T20:06:25;35.72;;;19.95;;
57085;SDS011;42964;42.910;23.792;2023-03-04T20:11:25;39.90;;;19.85;;
57085;SDS011;42964;42.910;23.792;2023-03-04T20:16:25;45.13;;;25.45;;
57085;SDS011;42964;42.910;23.792;2023-03-04T20:21:26;39.92;;;22.02;;
57085;SDS011;42964;42.910;23.792;2023-03-04T20:26:27;42.25;;;24.17;;
57085;SDS011;42964;42.910;23.792;2023-03-04T20:31:29;52.05;;;33.53;;
57085;SDS011;42964;42.910;23.792;2023-03-04T20:36:29;47.03;;;28.13;;
57085;SDS011;42964;42.910;23.792;2023-03-04T20:46:29;39.35;;;22.55;;
57085;SDS011;42964;42.910;23.792;2023-03-04T20:51:38;40.83;;;21.02;;
57085;SDS011;42964;42.910;23.792;2023-03-04T21:01:37;36.92;;;21.38;;
57085;SDS011;42964;42.910;23.792;2023-03-04T21:06:38;38.53;;;25.33;;
57085;SDS011;42964;42.910;23.792;2023-03-04T21:11:38;57.65;;;35.15;;
57085;SDS011;42964;42.910;23.792;2023-03-04T21:16:38;56.00;;;35.85;;
57085;SDS011;42964;42.910;23.792;2023-03-04T21:21:37;59.72;;;35.05;;
57085;SDS011;42964;42.910;23.792;2023-03-04T21:26:36;54.22;;;32.63;;
57085;SDS011;42964;42.910;23.792;2023-03-04T21:31:36;56.45;;;34.25;;
57085;SDS011;42964;42.910;23.792;2023-03-04T21:36:37;65.03;;;36.30;;
57085;SDS011;42964;42.910;23.792;2023-03-04T21:41:36;55.45;;;33.60;;
57085;SDS011;42964;42.910;23.792;2023-03-04T21:46:35;43.70;;;27.77;;
57085;SDS011;42964;42.910;23.792;2023-03-04T21:51:34;41.78;;;25.95;;
57085;SDS011;42964;42.910;23.792;2023-03-04T21:56:33;38.30;;;23.95;;
57085;SDS011;42964;42.910;23.792;2023-03-04T22:01:33;37.25;;;24.42;;
57085;SDS011;42964;42.910;23.792;2023-03-04T22:06:32;41.30;;;23.88;;
57085;SDS011;42964;42.910;23.792;2023-03-04T22:11:32;41.70;;;24.27;;
57085;SDS011;42964;42.910;23.792;2023-03-04T22:21:30;44.53;;;27.83;;
57085;SDS011;42964;42.910;23.792;2023-03-04T22:31:32;38.65;;;25.00;;
57085;SDS011;42964;42.910;23.792;2023-03-04T22:36:34;65.95;;;37.33;;
57085;SDS011;42964;42.910;23.792;2023-03-04T22:41:34;58.83;;;34.33;;
57085;SDS011;42964;42.910;23.792;2023-03-04T22:46:35;42.10;;;25.92;;
57085;SDS011;42964;42.910;23.792;2023-03-04T22:51:36;45.80;;;25.92;;
57085;SDS011;42964;42.910;23.792;2023-03-04T22:56:38;38.25;;;24.00;;
57085;SDS011;42964;42.910;23.792;2023-03-04T23:01:37;36.13;;;20.75;;
57085;SDS011;42964;42.910;23.792;2023-03-04T23:06:36;36.28;;;20.95;;
57085;SDS011;42964;42.910;23.792;2023-03-04T23:11:35;35.88;;;23.20;;
57085;SDS011;42964;42.910;23.792;2023-03-04T23:16:37;35.55;;;19.85;;
57085;SDS011;42964;42.910;23.792;2023-03-04T23:21:40;38.00;;;21.48;;
57085;SDS011;42964;42.910;23.792;2023-03-04T23:26:40;79.65;;;46.15;;
57085;SDS011;42964;42.910;23.792;2023-03-04T23:31:40;46.92;;;30.05;;
57085;SDS011;42964;42.910;23.792;2023-03-04T23:36:40;48.15;;;26.60;;
57085;SDS011;42964;42.910;23.792;2023-03-04T23:41:40;50.20;;;22.70;;
57085;SDS011;42964;42.910;23.792;2023-03-04T23:46:39;39.42;;;23.50;;
57085;SDS011;42964;42.910;23.792;2023-03-04T23:51:38;36.20;;;19.65;;
57085;SDS011;42964;42.910;23.792;2023-03-04T23:56:38;51.28;;;29.50;;
